Time;durP1;ratioP1;P1;durP2;ratioP2;P2;SDS_P1;SDS_P2;PMS_P1;PMS_P2;Temp;Humidity;BMP_temperature;BMP_pressure;BME280_temperature;BME280_humidity;BME280_pressure;Samples;Min_cycle;Max_cycle;Signal;HPM_P1;HPM_P2
2021/01/23 00:00:57;;;;;;;26.85;16.05;;;2.30;93.60;;;;;;5020882;28;20045;-63
2021/01/23 00:03:22;;;;;;;28.00;16.17;;;2.30;93.60;;;;;;5022148;28;20502;-63
2021/01/23 00:05:48;;;;;;;24.27;16.60;;;2.30;93.90;;;;;;5024139;28;20068;-63
2021/01/23 00:08:13;;;;;;;26.92;16.92;;;2.30;93.60;;;;;;5022311;28;20470;-63
2021/01/23 00:10:39;;;;;;;31.88;17.80;;;2.40;93.60;;;;;;5019941;28;20094;-63
2021/01/23 00:13:05;;;;;;;28.52;18.15;;;2.40;93.60;;;;;;5016471;28;20049;-63
2021/01/23 00:15:31;;;;;;;24.10;15.88;;;2.40;93.60;;;;;;5019129;28;20365;-63
2021/01/23 00:17:57;;;;;;;23.13;17.58;;;2.50;93.70;;;;;;5024097;28;20044;-63
2021/01/23 00:20:23;;;;;;;29.65;17.75;;;2.40;93.70;;;;;;5021338;28;20092;-63
2021/01/23 00:22:50;;;;;;;25.75;15.73;;;2.40;93.60;;;;;;5017887;28;20037;-63
2021/01/23 00:25:16;;;;;;;28.33;17.20;;;2.40;93.60;;;;;;5020451;28;20107;-63
2021/01/23 00:27:41;;;;;;;24.15;17.20;;;2.40;93.60;;;;;;5019795;28;20059;-63
2021/01/23 00:30:08;;;;;;;30.33;18.98;;;2.40;93.60;;;;;;5018570;28;20045;-63
2021/01/23 00:32:34;;;;;;;24.98;16.73;;;2.40;93.50;;;;;;5023710;28;20117;-63
2021/01/23 00:35:00;;;;;;;22.20;17.08;;;2.40;93.50;;;;;;5016431;28;20125;-63
2021/01/23 00:37:25;;;;;;;26.33;17.10;;;2.40;93.40;;;;;;5023953;28;20043;-63
2021/01/23 00:39:51;;;;;;;27.70;16.80;;;2.30;93.40;;;;;;5019429;28;20037;-63
2021/01/23 00:42:17;;;;;;;30.77;17.42;;;2.30;93.30;;;;;;5018192;28;20124;-63
2021/01/23 00:44:42;;;;;;;26.50;17.27;;;2.40;93.40;;;;;;5020623;28;20544;-63
2021/01/23 00:47:08;;;;;;;25.92;17.25;;;2.30;93.50;;;;;;5024782;28;20041;-63
2021/01/23 00:49:33;;;;;;;17.40;13.82;;;2.30;93.40;;;;;;5020678;28;20069;-63
2021/01/23 00:51:59;;;;;;;24.02;14.55;;;2.20;93.30;;;;;;5019503;28;20057;-63
2021/01/23 00:54:25;;;;;;;28.63;17.92;;;2.10;93.00;;;;;;5021721;28;20041;-63
2021/01/23 00:56:50;;;;;;;27.35;17.73;;;2.10;93.20;;;;;;5019005;28;20447;-63
2021/01/23 00:59:16;;;;;;;26.42;17.85;;;2.10;93.50;;;;;;5017764;28;20512;-63
2021/01/23 01:01:42;;;;;;;31.58;19.42;;;2.10;93.60;;;;;;5019849;28;20034;-63
2021/01/23 01:04:07;;;;;;;23.08;17.40;;;2.10;93.70;;;;;;5021332;28;20087;-63
2021/01/23 01:06:33;;;;;;;31.05;18.42;;;2.10;93.70;;;;;;5021471;28;20092;-63
2021/01/23 01:08:59;;;;;;;29.67;18.65;;;2.10;93.30;;;;;;5022008;28;20406;-63
2021/01/23 01:11:24;;;;;;;28.10;17.88;;;2.10;93.50;;;;;;5018549;28;20112;-63
2021/01/23 01:13:50;;;;;;;28.25;18.08;;;2.10;93.60;;;;;;5024361;28;20036;-63
2021/01/23 01:16:15;;;;;;;28.13;18.40;;;2.20;93.70;;;;;;5021547;28;20061;-63
2021/01/23 01:18:43;;;;;;;28.58;18.42;;;2.20;93.70;;;;;;5026248;28;20061;-63
2021/01/23 01:21:09;;;;;;;26.02;18.50;;;2.20;93.70;;;;;;5027428;28;20033;-63
2021/01/23 01:23:35;;;;;;;28.20;17.67;;;2.20;93.70;;;;;;5025511;28;20084;-63
2021/01/23 01:26:01;;;;;;;25.92;18.10;;;2.30;93.70;;;;;;5028687;28;20064;-63
2021/01/23 01:28:26;;;;;;;30.77;17.33;;;2.30;93.80;;;;;;5023364;28;20116;-63
2021/01/23 01:30:52;;;;;;;22.38;18.25;;;2.30;93.70;;;;;;5026413;28;20152;-63
2021/01/23 01:33:18;;;;;;;25.65;17.55;;;2.30;93.60;;;;;;5031913;28;20515;-63
2021/01/23 01:35:44;;;;;;;29.70;17.80;;;2.40;93.50;;;;;;5023619;28;20034;-63
2021/01/23 01:38:09;;;;;;;24.35;17.48;;;2.30;93.50;;;;;;5020841;28;20076;-63
2021/01/23 01:40:35;;;;;;;33.22;18.23;;;2.30;93.50;;;;;;5026811;28;20049;-63
2021/01/23 01:43:01;;;;;;;24.08;18.10;;;2.30;93.40;;;;;;5024051;28;20483;-63
2021/01/23 01:45:27;;;;;;;26.45;18.40;;;2.30;93.50;;;;;;5024096;28;20040;-63
2021/01/23 01:47:54;;;;;;;29.10;18.38;;;2.30;93.40;;;;;;5028419;28;20034;-63
2021/01/23 01:50:20;;;;;;;27.77;17.70;;;2.30;93.40;;;;;;5022996;28;20439;-63
2021/01/23 01:52:46;;;;;;;29.13;18.23;;;2.30;93.40;;;;;;5019255;28;20148;-63
2021/01/23 01:55:13;;;;;;;26.92;17.92;;;2.30;93.40;;;;;;5025907;28;20061;-63
2021/01/23 01:57:39;;;;;;;22.98;18.15;;;2.30;93.40;;;;;;5023451;28;20056;-63
2021/01/23 02:00:08;;;;;;;24.08;17.77;;;2.30;93.40;;;;;;5032183;28;20040;-63
2021/01/23 02:03:14;;;;;;;22.55;17.25;;;2.30;93.40;;;;;;5022418;28;20395;-63
2021/01/23 02:05:45;;;;;;;25.85;18.02;;;2.30;93.40;;;;;;5023532;28;20026;-63
2021/01/23 02:08:25;;;;;;;26.60;19.23;;;2.20;93.40;;;;;;5027372;28;20038;-63
2021/01/23 02:11:14;;;;;;;31.38;20.38;;;2.20;93.40;;;;;;5020635;28;20120;-63
2021/01/23 02:13:49;;;;;;;31.67;19.90;;;2.20;93.50;;;;;;5021844;28;20041;-63
2021/01/23 02:16:16;;;;;;;26.02;17.13;;;2.20;93.50;;;;;;5025587;28;20033;-63
2021/01/23 02:18:52;;;;;;;28.65;20.05;;;2.20;93.50;;;;;;5024590;28;20038;-63
2021/01/23 02:21:45;;;;;;;26.83;19.33;;;2.20;93.60;;;;;;5027427;28;20049;-63
2021/01/23 02:24:13;;;;;;;27.98;19.85;;;2.20;93.60;;;;;;5020971;28;20045;-63
2021/01/23 02:27:20;;;;;;;27.27;18.70;;;2.20;93.60;;;;;;5026712;28;20037;-63
2021/01/23 02:29:56;;;;;;;28.00;19.05;;;2.20;93.60;;;;;;5024540;28;20465;-63
2021/01/23 02:32:23;;;;;;;32.85;20.52;;;2.20;93.60;;;;;;5025740;28;20056;-63
2021/01/23 02:34:50;;;;;;;28.48;20.38;;;2.20;93.60;;;;;;5024430;28;20704;-63
2021/01/23 02:37:17;;;;;;;29.23;20.80;;;2.20;94.00;;;;;;5025480;28;20040;-63
2021/01/23 02:39:43;;;;;;;29.10;20.13;;;2.20;93.70;;;;;;5023961;28;20029;-63
2021/01/23 02:42:09;;;;;;;32.47;20.30;;;2.20;93.70;;;;;;5022891;28;20033;-63
2021/01/23 02:44:35;;;;;;;28.45;19.33;;;2.20;93.70;;;;;;5021836;28;20038;-63
2021/01/23 02:47:00;;;;;;;35.50;19.23;;;2.20;93.70;;;;;;5024161;28;20036;-63
2021/01/23 02:49:26;;;;;;;33.10;20.40;;;2.20;93.60;;;;;;5022150;28;20476;-63
2021/01/23 02:52:04;;;;;;;31.02;20.48;;;2.10;93.60;;;;;;5023165;28;20825;-63
2021/01/23 02:54:42;;;;;;;36.88;20.95;;;2.10;93.60;;;;;;5022302;28;20029;-63
2021/01/23 02:57:10;;;;;;;29.08;19.45;;;2.20;93.70;;;;;;5017717;28;20484;-63
2021/01/23 02:59:39;;;;;;;31.65;21.17;;;2.20;93.60;;;;;;5022096;28;20435;-63
2021/01/23 03:02:09;;;;;;;29.90;19.05;;;2.20;93.60;;;;;;5024680;28;20294;-63
2021/01/23 03:04:37;;;;;;;26.23;19.83;;;2.20;93.60;;;;;;5022469;28;20034;-63
2021/01/23 03:07:02;;;;;;;25.35;17.45;;;2.20;93.60;;;;;;5019617;28;20068;-63
2021/01/23 03:09:28;;;;;;;30.48;19.17;;;2.10;93.60;;;;;;5021458;28;20495;-64
2021/01/23 03:11:54;;;;;;;24.17;19.15;;;2.10;93.60;;;;;;5020026;28;20176;-63
2021/01/23 03:14:20;;;;;;;30.00;19.25;;;2.10;93.60;;;;;;5024938;28;20042;-63
2021/01/23 03:16:50;;;;;;;32.50;18.77;;;2.10;93.60;;;;;;5023985;28;20034;-63
2021/01/23 03:19:16;;;;;;;31.58;18.33;;;2.10;93.50;;;;;;5023933;28;20562;-63
2021/01/23 03:21:43;;;;;;;25.27;18.65;;;2.10;93.60;;;;;;5026932;28;20054;-63
2021/01/23 03:24:09;;;;;;;28.17;18.98;;;2.10;93.50;;;;;;5021573;28;20041;-63
2021/01/23 03:26:35;;;;;;;21.02;17.20;;;2.10;93.50;;;;;;5023587;28;20048;-63
2021/01/23 03:29:02;;;;;;;26.63;16.63;;;2.10;93.50;;;;;;5021179;28;20399;-63
2021/01/23 03:31:28;;;;;;;24.98;17.45;;;2.10;93.50;;;;;;5025665;28;20041;-63
2021/01/23 03:33:53;;;;;;;26.48;16.45;;;2.10;93.50;;;;;;5024102;28;20091;-63
2021/01/23 03:36:19;;;;;;;27.73;17.20;;;2.00;93.50;;;;;;5016484;28;20034;-63
2021/01/23 03:38:45;;;;;;;22.80;16.95;;;2.00;93.50;;;;;;5018870;28;20029;-63
2021/01/23 03:41:10;;;;;;;29.08;18.60;;;2.00;93.50;;;;;;5024018;28;20050;-63
2021/01/23 03:43:36;;;;;;;29.48;17.48;;;2.00;93.50;;;;;;5020197;28;20533;-63
2021/01/23 03:46:02;;;;;;;29.52;17.60;;;2.00;93.60;;;;;;5022246;28;20049;-63
2021/01/23 03:48:27;;;;;;;27.77;16.77;;;2.00;93.60;;;;;;5020509;28;20046;-63
2021/01/23 03:50:53;;;;;;;26.63;16.08;;;2.10;93.60;;;;;;5022211;28;20049;-63
2021/01/23 03:53:18;;;;;;;26.55;17.13;;;2.00;93.40;;;;;;5022252;28;20073;-63
2021/01/23 03:55:44;;;;;;;27.33;17.35;;;1.90;93.40;;;;;;5024685;28;20522;-63
2021/01/23 03:58:10;;;;;;;27.75;18.35;;;2.00;93.60;;;;;;5016675;28;20276;-63
2021/01/23 04:00:35;;;;;;;27.45;19.55;;;1.90;93.50;;;;;;5022425;28;20053;-63
2021/01/23 04:03:01;;;;;;;26.38;17.13;;;1.90;93.60;;;;;;5021917;28;20041;-63
2021/01/23 04:05:26;;;;;;;24.13;16.45;;;1.90;93.70;;;;;;5023480;28;20032;-63
2021/01/23 04:07:52;;;;;;;24.83;17.35;;;2.00;93.70;;;;;;5022192;28;20407;-63
2021/01/23 04:10:18;;;;;;;27.52;16.55;;;2.20;93.80;;;;;;5021631;28;20041;-63
2021/01/23 04:12:43;;;;;;;23.65;15.95;;;2.00;93.80;;;;;;5020708;28;20073;-63
2021/01/23 04:15:09;;;;;;;22.20;15.43;;;2.10;93.80;;;;;;5024946;28;20506;-63
2021/01/23 04:17:35;;;;;;;23.67;15.48;;;2.10;93.80;;;;;;5021271;28;20046;-63
2021/01/23 04:20:01;;;;;;;22.60;14.60;;;2.10;93.70;;;;;;5023679;28;20038;-63
2021/01/23 04:22:27;;;;;;;20.98;14.65;;;2.10;93.70;;;;;;5022284;28;20037;-63
2021/01/23 04:24:52;;;;;;;22.20;14.52;;;2.10;93.60;;;;;;5019032;28;20099;-63
2021/01/23 04:27:18;;;;;;;23.63;13.20;;;2.20;93.90;;;;;;5017019;28;20514;-64
2021/01/23 04:29:44;;;;;;;21.15;14.18;;;2.20;93.50;;;;;;5022187;28;20041;-63
2021/01/23 04:32:09;;;;;;;21.70;14.18;;;2.20;93.50;;;;;;5023058;28;20103;-63
2021/01/23 04:34:35;;;;;;;20.60;13.23;;;2.20;93.40;;;;;;5023535;28;20091;-63
2021/01/23 04:37:01;;;;;;;21.90;12.43;;;2.20;93.40;;;;;;5021743;28;20036;-63
2021/01/23 04:39:26;;;;;;;18.48;13.35;;;2.20;93.40;;;;;;5021786;28;20037;-63
2021/01/23 04:41:52;;;;;;;20.65;14.27;;;2.30;93.40;;;;;;5020498;28;21327;-63
2021/01/23 04:44:18;;;;;;;18.60;12.48;;;2.20;93.40;;;;;;5021140;28;20044;-63
2021/01/23 04:46:43;;;;;;;22.60;13.13;;;2.20;93.50;;;;;;5023132;28;20468;-63
2021/01/23 04:49:09;;;;;;;18.35;13.75;;;2.30;93.50;;;;;;5024107;28;20037;-63
2021/01/23 04:51:35;;;;;;;17.88;13.68;;;2.30;93.60;;;;;;5019530;28;20045;-63
2021/01/23 04:54:01;;;;;;;25.92;13.82;;;2.20;93.60;;;;;;5021263;28;20128;-63
2021/01/23 04:56:27;;;;;;;22.63;14.05;;;2.30;93.60;;;;;;5022819;28;20391;-63
2021/01/23 04:58:53;;;;;;;23.60;15.35;;;2.30;93.60;;;;;;5016865;28;20041;-63
2021/01/23 05:01:19;;;;;;;24.05;14.30;;;2.30;93.70;;;;;;5022683;28;20046;-63
2021/01/23 05:03:55;;;;;;;21.05;13.38;;;2.30;93.80;;;;;;5022120;28;20407;-63
2021/01/23 05:06:21;;;;;;;27.65;14.93;;;2.40;93.80;;;;;;5020133;28;20029;-63
2021/01/23 05:08:46;;;;;;;20.13;13.63;;;2.40;93.80;;;;;;5022951;28;20476;-63
2021/01/23 05:11:12;;;;;;;26.60;14.90;;;2.40;93.90;;;;;;5020760;28;20038;-63
2021/01/23 05:13:38;;;;;;;23.23;13.77;;;2.40;93.90;;;;;;5017217;28;20177;-63
2021/01/23 05:16:22;;;;;;;19.55;13.90;;;2.50;93.90;;;;;;5023142;28;21334;-63
2021/01/23 05:18:56;;;;;;;23.25;14.65;;;2.50;94.00;;;;;;5021761;28;20041;-63
2021/01/23 05:21:21;;;;;;;17.27;13.70;;;2.50;94.00;;;;;;5018629;28;20476;-63
2021/01/23 05:24:01;;;;;;;19.63;13.80;;;2.50;94.10;;;;;;5021110;28;20111;-64
2021/01/23 05:26:27;;;;;;;30.13;15.63;;;2.60;94.10;;;;;;5021834;28;20111;-63
2021/01/23 05:28:53;;;;;;;19.30;14.32;;;2.60;94.10;;;;;;5019211;28;20475;-63
2021/01/23 05:31:18;;;;;;;21.77;15.65;;;2.50;94.10;;;;;;5022867;28;20403;-63
2021/01/23 05:33:44;;;;;;;19.50;14.38;;;2.60;94.10;;;;;;5022086;28;20038;-63
2021/01/23 05:36:13;;;;;;;19.80;14.73;;;2.60;94.10;;;;;;5022955;28;20458;-63
2021/01/23 05:38:43;;;;;;;18.42;14.10;;;2.60;94.10;;;;;;5019580;28;20038;-63
2021/01/23 05:41:11;;;;;;;19.88;14.20;;;2.60;94.10;;;;;;5021169;28;20033;-63
2021/01/23 05:43:48;;;;;;;23.30;15.45;;;2.60;94.10;;;;;;5018789;28;20434;-64
2021/01/23 05:46:16;;;;;;;21.00;15.50;;;2.60;94.10;;;;;;5019802;28;20127;-64
2021/01/23 05:48:47;;;;;;;24.25;15.15;;;2.60;94.10;;;;;;5022193;28;20056;-63
2021/01/23 05:51:14;;;;;;;21.23;15.88;;;2.60;94.10;;;;;;5019596;28;20050;-64
2021/01/23 05:53:40;;;;;;;30.77;16.17;;;2.60;94.10;;;;;;5018092;28;20440;-63
2021/01/23 05:56:06;;;;;;;19.75;15.75;;;2.60;94.30;;;;;;5019401;28;20033;-63
2021/01/23 05:58:34;;;;;;;18.02;15.45;;;2.60;94.20;;;;;;5020496;28;20037;-63
2021/01/23 06:01:02;;;;;;;22.42;16.90;;;2.70;94.20;;;;;;5021462;28;20042;-63
2021/01/23 06:03:36;;;;;;;25.88;17.20;;;2.60;94.20;;;;;;5022824;28;20041;-63
2021/01/23 06:06:03;;;;;;;24.42;14.85;;;2.60;94.20;;;;;;5027535;28;20068;-64
2021/01/23 06:08:52;;;;;;;22.48;14.93;;;2.60;94.30;;;;;;5022679;28;20430;-63
2021/01/23 06:11:20;;;;;;;23.70;15.63;;;2.60;94.30;;;;;;5024708;28;20045;-63
2021/01/23 06:13:51;;;;;;;25.38;15.82;;;2.60;94.30;;;;;;5030407;28;20483;-63
2021/01/23 06:16:32;;;;;;;20.02;16.00;;;2.60;94.30;;;;;;5022766;28;20037;-63
2021/01/23 06:19:26;;;;;;;25.98;17.35;;;2.60;94.40;;;;;;5026749;28;20044;-63
2021/01/23 06:21:52;;;;;;;24.67;17.70;;;2.70;94.40;;;;;;5020414;28;20057;-63
2021/01/23 06:24:45;;;;;;;18.75;15.70;;;2.70;94.40;;;;;;5027939;28;20045;-63
2021/01/23 06:27:11;;;;;;;21.83;16.67;;;2.70;94.50;;;;;;5022359;28;20045;-63
2021/01/23 06:29:39;;;;;;;19.92;16.98;;;2.70;94.60;;;;;;5025633;28;20037;-64
2021/01/23 06:32:20;;;;;;;22.80;16.58;;;2.70;94.60;;;;;;5025088;28;20438;-63
2021/01/23 06:34:58;;;;;;;21.65;16.23;;;2.70;94.60;;;;;;5024313;28;20034;-63
2021/01/23 06:37:29;;;;;;;24.52;16.02;;;2.80;94.70;;;;;;5019536;28;20582;-63
2021/01/23 06:40:03;;;;;;;22.85;17.23;;;2.80;94.70;;;;;;5025696;28;20040;-64
2021/01/23 06:42:29;;;;;;;21.05;17.02;;;2.80;94.70;;;;;;5022520;28;20176;-63
2021/01/23 06:44:55;;;;;;;21.80;17.42;;;2.80;94.70;;;;;;5022751;28;20490;-63
2021/01/23 06:47:21;;;;;;;22.88;16.77;;;2.80;94.70;;;;;;5022849;28;20037;-63
2021/01/23 06:49:46;;;;;;;21.90;16.60;;;2.90;94.70;;;;;;5025690;28;20510;-63
2021/01/23 06:52:12;;;;;;;24.27;18.48;;;2.90;94.70;;;;;;5023612;28;20038;-64
2021/01/23 06:54:38;;;;;;;22.98;15.80;;;2.90;94.70;;;;;;5021842;28;20049;-63
2021/01/23 06:57:05;;;;;;;21.25;17.35;;;2.90;94.70;;;;;;5025238;28;20041;-63
2021/01/23 06:59:33;;;;;;;21.08;17.65;;;3.00;94.70;;;;;;5023170;28;20090;-63
2021/01/23 07:02:08;;;;;;;21.00;17.20;;;2.90;94.70;;;;;;5023481;28;20044;-63
2021/01/23 07:04:46;;;;;;;22.38;16.25;;;2.90;94.70;;;;;;5021881;28;20058;-64
2021/01/23 07:07:12;;;;;;;19.05;17.05;;;3.00;94.70;;;;;;5021717;28;20045;-63
2021/01/23 07:09:50;;;;;;;19.98;16.75;;;3.00;94.70;;;;;;5022437;28;20527;-63
2021/01/23 07:12:39;;;;;;;21.33;16.70;;;3.00;94.70;;;;;;5019235;28;20045;-63
2021/01/23 07:15:09;;;;;;;19.20;16.55;;;3.00;94.60;;;;;;5019735;28;20127;-63
2021/01/23 07:17:41;;;;;;;20.67;16.52;;;3.00;94.80;;;;;;5026510;28;20518;-64
2021/01/23 07:20:14;;;;;;;20.88;16.13;;;3.00;94.60;;;;;;5022556;28;20037;-64
2021/01/23 07:22:43;;;;;;;20.85;15.82;;;3.00;94.60;;;;;;5022859;28;20124;-64
2021/01/23 07:25:11;;;;;;;24.52;16.73;;;3.00;94.60;;;;;;5019816;28;20088;-63
2021/01/23 07:27:38;;;;;;;19.80;16.92;;;3.00;94.60;;;;;;5022929;28;20029;-63
2021/01/23 07:30:17;;;;;;;20.52;16.10;;;3.00;94.60;;;;;;5022130;28;20088;-63
2021/01/23 07:32:45;;;;;;;20.17;16.75;;;3.00;94.60;;;;;;5021045;28;20042;-63
2021/01/23 07:35:13;;;;;;;19.63;15.60;;;3.00;94.60;;;;;;5019793;28;20041;-63
2021/01/23 07:37:46;;;;;;;20.33;15.70;;;3.10;94.60;;;;;;5021106;28;20030;-64
2021/01/23 07:40:23;;;;;;;21.13;15.70;;;3.10;94.60;;;;;;5021942;28;20037;-64
2021/01/23 07:42:50;;;;;;;22.73;15.50;;;3.10;94.60;;;;;;5022654;28;20046;-63
2021/01/23 07:45:18;;;;;;;21.13;15.90;;;3.10;94.60;;;;;;5020266;28;20107;-64
2021/01/23 07:48:00;;;;;;;20.08;15.25;;;3.10;94.50;;;;;;5025072;28;20388;-63
2021/01/23 07:50:27;;;;;;;20.52;15.90;;;3.10;94.50;;;;;;5019342;28;20052;-64
2021/01/23 07:52:53;;;;;;;16.90;15.13;;;3.10;94.50;;;;;;5023172;28;20488;-63
2021/01/23 07:55:18;;;;;;;21.27;15.32;;;3.10;94.50;;;;;;5018881;28;20606;-64
2021/01/23 07:58:07;;;;;;;18.33;15.15;;;3.10;94.50;;;;;;5014671;28;20038;-63
2021/01/23 08:00:33;;;;;;;19.08;14.57;;;3.10;94.60;;;;;;5023440;28;20073;-63
2021/01/23 08:02:58;;;;;;;22.17;15.52;;;3.10;94.60;;;;;;5022483;28;20129;-63
2021/01/23 08:05:43;;;;;;;18.42;14.73;;;3.10;94.60;;;;;;5018807;28;20041;-64
2021/01/23 08:08:11;;;;;;;22.45;15.45;;;3.10;94.60;;;;;;5015862;28;20560;-63
2021/01/23 08:10:38;;;;;;;17.75;15.07;;;3.20;94.50;;;;;;5019606;28;20045;-64
2021/01/23 08:13:06;;;;;;;17.90;15.27;;;3.20;94.50;;;;;;5022331;28;20394;-64
2021/01/23 08:15:36;;;;;;;19.20;15.00;;;3.20;94.60;;;;;;5017658;28;20095;-63
2021/01/23 08:18:15;;;;;;;23.65;15.00;;;3.20;94.50;;;;;;5019354;28;20033;-63
2021/01/23 08:20:41;;;;;;;19.70;14.85;;;3.20;94.60;;;;;;5022870;28;20056;-63
2021/01/23 08:23:12;;;;;;;19.48;14.48;;;3.30;94.60;;;;;;5022636;28;20499;-64
2021/01/23 08:25:56;;;;;;;16.65;14.70;;;3.30;94.60;;;;;;5020305;28;20050;-63
2021/01/23 08:28:42;;;;;;;16.23;14.52;;;3.30;94.50;;;;;;5021416;28;20038;-63
2021/01/23 08:31:11;;;;;;;19.58;15.23;;;3.40;94.50;;;;;;5023176;28;20150;-63
2021/01/23 08:33:36;;;;;;;20.48;13.43;;;3.40;94.50;;;;;;5021787;28;20045;-63
2021/01/23 08:36:02;;;;;;;18.30;14.80;;;3.40;94.50;;;;;;5020435;28;20037;-63
2021/01/23 08:38:28;;;;;;;16.20;13.85;;;3.40;94.50;;;;;;5019281;28;20064;-63
2021/01/23 08:40:54;;;;;;;17.77;14.05;;;3.40;94.40;;;;;;5022277;28;20045;-64
2021/01/23 08:43:19;;;;;;;21.73;14.43;;;3.40;94.40;;;;;;5026174;28;20108;-64
2021/01/23 08:45:45;;;;;;;19.38;13.63;;;3.40;94.40;;;;;;5022842;28;20475;-63
2021/01/23 08:48:10;;;;;;;22.42;15.20;;;3.50;94.50;;;;;;5021898;28;20034;-64
2021/01/23 08:50:36;;;;;;;19.20;14.40;;;3.50;94.40;;;;;;5017777;28;20042;-64
2021/01/23 08:53:02;;;;;;;18.10;14.45;;;3.60;94.40;;;;;;5020135;28;20095;-63
2021/01/23 08:55:27;;;;;;;19.83;13.18;;;3.50;94.70;;;;;;5020782;28;20491;-63
2021/01/23 08:57:53;;;;;;;15.95;13.82;;;3.50;94.70;;;;;;5021001;28;20041;-64
2021/01/23 09:00:19;;;;;;;18.30;14.23;;;3.60;94.40;;;;;;5022817;28;20038;-64
2021/01/23 09:02:45;;;;;;;18.13;14.45;;;3.60;94.40;;;;;;5020670;28;20056;-64
2021/01/23 09:05:11;;;;;;;16.45;13.40;;;3.70;94.40;;;;;;5019021;28;20038;-64
2021/01/23 09:07:39;;;;;;;17.17;13.43;;;3.70;94.40;;;;;;5019392;28;20065;-63
2021/01/23 09:10:07;;;;;;;17.42;13.20;;;3.70;94.30;;;;;;5018161;28;20038;-64
2021/01/23 09:12:33;;;;;;;15.35;13.23;;;3.70;94.30;;;;;;5020172;28;20041;-64
2021/01/23 09:14:58;;;;;;;18.02;13.30;;;3.70;94.20;;;;;;5021536;28;20033;-64
2021/01/23 09:17:24;;;;;;;14.80;12.90;;;3.80;94.20;;;;;;5022130;28;20140;-64
2021/01/23 09:19:50;;;;;;;21.92;13.70;;;3.70;94.20;;;;;;5023125;28;20044;-64
2021/01/23 09:22:15;;;;;;;15.27;13.68;;;3.70;94.20;;;;;;5024656;28;20041;-64
2021/01/23 09:24:42;;;;;;;15.65;12.70;;;3.80;94.20;;;;;;5023333;28;20037;-64
2021/01/23 09:27:08;;;;;;;14.82;12.90;;;3.80;94.50;;;;;;5024398;28;20045;-64
2021/01/23 09:29:34;;;;;;;17.17;13.70;;;3.80;94.20;;;;;;5020285;28;20487;-64
2021/01/23 09:32:01;;;;;;;15.05;12.77;;;3.90;94.20;;;;;;5021029;28;20379;-64
2021/01/23 09:34:27;;;;;;;14.60;12.18;;;3.90;94.20;;;;;;5028672;28;20033;-64
2021/01/23 09:36:54;;;;;;;19.27;12.68;;;3.90;94.00;;;;;;5021466;28;20148;-64
2021/01/23 09:39:19;;;;;;;14.45;12.95;;;4.00;94.10;;;;;;5022910;28;20068;-63
2021/01/23 09:41:45;;;;;;;17.33;11.85;;;4.00;94.00;;;;;;5023020;28;20472;-64
2021/01/23 09:44:10;;;;;;;14.40;12.05;;;3.90;94.00;;;;;;5021951;28;20037;-64
2021/01/23 09:46:37;;;;;;;19.63;12.25;;;4.00;94.00;;;;;;5023977;28;20037;-64
2021/01/23 09:49:02;;;;;;;14.82;12.25;;;4.00;93.90;;;;;;5012022;28;20041;-64
2021/01/23 09:51:28;;;;;;;14.07;12.55;;;4.00;93.90;;;;;;5023875;28;20047;-64
2021/01/23 09:53:54;;;;;;;14.85;12.48;;;4.00;93.90;;;;;;5027350;28;20046;-64
2021/01/23 09:56:21;;;;;;;18.33;12.55;;;4.10;93.90;;;;;;5024091;28;20034;-64
2021/01/23 09:58:47;;;;;;;15.10;12.75;;;4.00;93.90;;;;;;5017637;28;20064;-64
2021/01/23 10:01:13;;;;;;;13.80;12.40;;;4.10;93.90;;;;;;5020477;28;20034;-63
2021/01/23 10:03:39;;;;;;;14.35;12.50;;;4.10;93.90;;;;;;5021360;28;20048;-64
2021/01/23 10:06:04;;;;;;;17.25;13.15;;;4.10;93.90;;;;;;5021945;28;20133;-63
2021/01/23 10:08:30;;;;;;;26.70;13.13;;;4.10;93.90;;;;;;5024180;28;20407;-63
2021/01/23 10:10:56;;;;;;;19.23;12.68;;;4.20;93.90;;;;;;5020968;28;20491;-63
2021/01/23 10:13:21;;;;;;;16.35;13.23;;;4.30;94.00;;;;;;5024776;28;20045;-64
2021/01/23 10:15:47;;;;;;;13.65;11.65;;;4.30;94.00;;;;;;5024310;28;20037;-64
2021/01/23 10:18:13;;;;;;;16.02;11.52;;;4.30;93.90;;;;;;5022474;28;20680;-64
2021/01/23 10:20:39;;;;;;;14.82;11.93;;;4.40;93.70;;;;;;5042935;28;20442;-64
2021/01/23 10:23:04;;;;;;;15.57;11.15;;;4.40;93.60;;;;;;5021872;28;20084;-64
2021/01/23 10:25:31;;;;;;;15.32;11.05;;;4.40;93.50;;;;;;5020743;28;20040;-64
2021/01/23 10:27:57;;;;;;;13.02;11.73;;;4.40;93.60;;;;;;5021464;28;20076;-64
2021/01/23 10:30:23;;;;;;;13.38;10.60;;;4.50;93.60;;;;;;5024410;28;20557;-64
2021/01/23 10:32:49;;;;;;;15.10;10.48;;;4.50;93.50;;;;;;5020995;28;20116;-64
2021/01/23 10:35:15;;;;;;;13.48;10.30;;;4.60;93.40;;;;;;5022120;28;20703;-64
2021/01/23 10:37:40;;;;;;;12.77;10.85;;;4.60;93.30;;;;;;5029669;28;20041;-64
2021/01/23 10:40:07;;;;;;;13.15;10.55;;;4.60;93.40;;;;;;5021871;28;20108;-64
2021/01/23 10:42:33;;;;;;;10.77;9.65;;;4.70;93.40;;;;;;5020105;28;20041;-64
2021/01/23 10:44:59;;;;;;;10.75;9.35;;;4.70;93.20;;;;;;5019316;28;20542;-64
2021/01/23 10:47:25;;;;;;;9.43;8.52;;;4.70;93.20;;;;;;5021097;28;20470;-64
2021/01/23 10:49:51;;;;;;;11.18;8.52;;;4.80;92.60;;;;;;5023569;28;20492;-64
2021/01/23 10:52:16;;;;;;;9.45;8.40;;;4.80;92.60;;;;;;5021532;28;20083;-64
2021/01/23 10:54:42;;;;;;;10.75;8.55;;;4.90;92.40;;;;;;5024356;28;20033;-64
2021/01/23 10:57:08;;;;;;;13.13;9.10;;;4.90;92.50;;;;;;5023331;28;20050;-64
2021/01/23 10:59:34;;;;;;;13.32;9.30;;;4.90;92.40;;;;;;5017071;28;20053;-64
2021/01/23 11:01:59;;;;;;;12.32;8.93;;;4.90;92.20;;;;;;5021909;28;20029;-64
2021/01/23 11:04:25;;;;;;;11.18;9.02;;;4.90;92.00;;;;;;5021173;28;20135;-64
2021/01/23 11:06:52;;;;;;;10.27;9.05;;;4.90;92.10;;;;;;5020632;28;20119;-64
2021/01/23 11:09:17;;;;;;;10.77;9.38;;;4.90;92.00;;;;;;5021881;28;20041;-64
2021/01/23 11:11:43;;;;;;;12.30;8.65;;;4.90;92.00;;;;;;5021238;28;20045;-64
2021/01/23 11:14:09;;;;;;;10.07;8.75;;;4.90;92.00;;;;;;5024244;28;20499;-64
2021/01/23 11:16:34;;;;;;;11.63;8.40;;;4.90;92.10;;;;;;5024524;28;20045;-64
2021/01/23 11:19:00;;;;;;;9.57;7.40;;;4.90;91.70;;;;;;5023803;28;20530;-64
2021/01/23 11:21:26;;;;;;;11.52;8.63;;;4.90;91.90;;;;;;5021573;28;20037;-64
2021/01/23 11:23:52;;;;;;;7.78;6.00;;;4.90;91.80;;;;;;5019774;28;20108;-64
2021/01/23 11:26:18;;;;;;;5.93;5.30;;;4.90;91.50;;;;;;5019601;28;20419;-64
2021/01/23 11:28:44;;;;;;;8.57;6.10;;;4.90;91.50;;;;;;5023460;28;20038;-64
2021/01/23 11:31:10;;;;;;;6.78;5.30;;;4.90;91.20;;;;;;5023454;28;20049;-64
2021/01/23 11:33:35;;;;;;;9.00;5.40;;;5.00;91.10;;;;;;5018416;28;20037;-64
2021/01/23 11:36:02;;;;;;;6.68;3.72;;;5.10;91.20;;;;;;5021660;28;20065;-64
2021/01/23 11:38:28;;;;;;;6.53;4.43;;;5.30;90.70;;;;;;5020636;28;20095;-64
2021/01/23 11:40:54;;;;;;;7.13;4.07;;;5.40;90.70;;;;;;5021612;28;20053;-64
2021/01/23 11:43:19;;;;;;;5.93;4.22;;;5.50;90.40;;;;;;5022346;28;20068;-64
2021/01/23 11:45:45;;;;;;;5.53;4.65;;;5.70;90.10;;;;;;5021358;28;20042;-64
2021/01/23 11:48:11;;;;;;;9.07;5.60;;;5.80;90.00;;;;;;5022897;28;20057;-65
2021/01/23 11:50:38;;;;;;;6.43;5.15;;;5.70;90.00;;;;;;5022856;28;20096;-64
2021/01/23 11:53:04;;;;;;;6.47;4.13;;;5.80;89.80;;;;;;5018824;28;20542;-64
2021/01/23 11:55:31;;;;;;;7.28;4.13;;;5.70;88.60;;;;;;5022736;28;20034;-64
2021/01/23 11:57:57;;;;;;;5.28;4.68;;;5.70;88.40;;;;;;5020307;28;20037;-64
2021/01/23 12:00:23;;;;;;;5.80;4.80;;;5.60;88.50;;;;;;5022351;28;20048;-64
2021/01/23 12:02:49;;;;;;;10.55;4.68;;;5.60;88.30;;;;;;5018067;28;20419;-64
2021/01/23 12:05:19;;;;;;;8.25;4.88;;;5.60;87.90;;;;;;5020158;28;20029;-64
2021/01/23 12:07:48;;;;;;;6.30;5.60;;;5.50;88.40;;;;;;5021415;28;20365;-64
2021/01/23 12:10:17;;;;;;;6.47;5.07;;;5.50;89.00;;;;;;5020200;28;20551;-64
2021/01/23 12:12:44;;;;;;;8.13;5.35;;;5.50;88.60;;;;;;5016269;28;20112;-64
2021/01/23 12:15:10;;;;;;;5.30;4.80;;;5.50;89.40;;;;;;5020502;28;20065;-64
2021/01/23 12:17:36;;;;;;;5.97;5.22;;;5.50;89.40;;;;;;5023610;28;20048;-64
2021/01/23 12:20:04;;;;;;;6.82;4.82;;;5.50;89.70;;;;;;5024652;28;20030;-64
2021/01/23 12:22:29;;;;;;;5.38;4.35;;;5.50;89.20;;;;;;5023163;28;20050;-64
2021/01/23 12:24:57;;;;;;;7.20;4.97;;;5.50;88.90;;;;;;5024910;28;20049;-64
2021/01/23 12:27:22;;;;;;;7.25;4.63;;;5.50;89.00;;;;;;5026431;28;20484;-64
2021/01/23 12:29:48;;;;;;;5.93;4.70;;;5.40;89.00;;;;;;5021362;28;20487;-64
2021/01/23 12:32:14;;;;;;;5.78;4.72;;;5.50;89.20;;;;;;5020607;28;20095;-64
2021/01/23 12:34:40;;;;;;;6.55;4.63;;;5.50;89.50;;;;;;5020987;28;20076;-64
2021/01/23 12:37:05;;;;;;;5.28;4.25;;;5.50;89.20;;;;;;5016160;28;20034;-64
2021/01/23 12:39:31;;;;;;;5.05;4.38;;;5.50;89.10;;;;;;5025751;28;20037;-64
2021/01/23 12:41:57;;;;;;;5.35;4.20;;;5.50;88.40;;;;;;5025621;28;20782;-64
2021/01/23 12:44:24;;;;;;;5.95;3.85;;;5.50;88.00;;;;;;5021888;28;20492;-64